createdAt,value
2023-05-13T00:01:09.640Z,8.60
2023-05-13T00:03:36.342Z,4.00
2023-05-13T00:06:02.872Z,3.40
2023-05-13T00:08:29.344Z,3.28
2023-05-13T00:10:55.814Z,8.27
2023-05-13T00:13:22.274Z,4.00
2023-05-13T00:15:48.799Z,4.57
2023-05-13T00:18:15.429Z,2.83
2023-05-13T00:20:41.953Z,7.95
2023-05-13T00:23:08.627Z,4.25
2023-05-13T00:25:35.013Z,2.33
2023-05-13T00:28:01.584Z,11.02
2023-05-13T00:30:28.039Z,2.85
2023-05-13T00:32:54.487Z,3.97
2023-05-13T00:35:20.986Z,3.53
2023-05-13T00:37:47.370Z,4.35
2023-05-13T00:40:22.393Z,6.07
2023-05-13T00:42:50.006Z,3.92
2023-05-13T00:45:16.780Z,4.78
2023-05-13T00:47:44.122Z,3.55
2023-05-13T00:50:11.438Z,5.18
2023-05-13T00:52:39.802Z,5.45
2023-05-13T00:55:07.540Z,10.80
2023-05-13T00:57:34.831Z,4.20
2023-05-13T01:00:02.307Z,5.55
2023-05-13T01:03:11.600Z,4.78
2023-05-13T01:06:04.916Z,4.40
2023-05-13T01:08:52.618Z,4.65
2023-05-13T01:11:24.321Z,4.10
2023-05-13T01:13:57.778Z,3.90
2023-05-13T01:16:49.384Z,4.22
2023-05-13T01:19:53.216Z,4.07
2023-05-13T01:22:19.658Z,3.53
2023-05-13T01:24:46.180Z,2.83
2023-05-13T01:27:13.774Z,4.18
2023-05-13T01:29:40.970Z,5.15
2023-05-13T01:32:09.972Z,6.75
2023-05-13T01:34:38.414Z,4.40
2023-05-13T01:37:05.369Z,3.22
2023-05-13T01:39:32.323Z,5.22
2023-05-13T01:41:58.918Z,4.80
2023-05-13T01:44:25.445Z,5.18
2023-05-13T01:46:53.372Z,5.78
2023-05-13T01:49:19.891Z,4.45
2023-05-13T01:51:46.306Z,3.85
2023-05-13T01:54:12.723Z,4.82
2023-05-13T01:56:39.162Z,5.80
2023-05-13T01:59:05.638Z,5.00
2023-05-13T02:01:32.043Z,4.78
2023-05-13T02:03:59.963Z,6.60
2023-05-13T02:06:27.844Z,5.60
2023-05-13T02:08:54.789Z,5.07
2023-05-13T02:11:22.351Z,5.90
2023-05-13T02:13:48.762Z,6.57
2023-05-13T02:16:17.499Z,5.38
2023-05-13T02:18:44.646Z,10.82
2023-05-13T02:21:11.117Z,6.20
2023-05-13T02:23:37.591Z,5.07
2023-05-13T02:26:04.151Z,5.10
2023-05-13T02:28:30.649Z,6.03
2023-05-13T02:30:57.102Z,5.80
2023-05-13T02:33:23.529Z,5.63
2023-05-13T02:35:50.116Z,6.57
2023-05-13T02:38:16.492Z,5.93
2023-05-13T02:40:42.969Z,8.50
2023-05-13T02:43:09.448Z,5.60
2023-05-13T02:45:36.002Z,5.95
2023-05-13T02:48:02.468Z,7.10
2023-05-13T02:50:28.913Z,6.95
2023-05-13T02:52:55.301Z,5.85
2023-05-13T02:55:21.891Z,8.25
2023-05-13T02:57:48.328Z,7.85
2023-05-13T03:00:15.397Z,6.80
2023-05-13T03:02:41.933Z,6.30
2023-05-13T03:05:08.761Z,6.53
2023-05-13T03:07:35.287Z,6.32
2023-05-13T03:10:01.748Z,9.52
2023-05-13T03:12:28.208Z,6.43
2023-05-13T03:14:54.631Z,8.45
2023-05-13T03:17:21.076Z,6.95
2023-05-13T03:19:47.531Z,6.68
2023-05-13T03:22:13.965Z,9.48
2023-05-13T03:24:41.607Z,6.95
2023-05-13T03:27:08.076Z,8.30
2023-05-13T03:29:34.555Z,6.90
2023-05-13T03:32:01.157Z,9.20
2023-05-13T03:34:27.547Z,7.38
2023-05-13T03:36:54.100Z,8.45
2023-05-13T03:39:20.563Z,9.63
2023-05-13T03:41:47.049Z,7.05
2023-05-13T03:44:13.692Z,8.27
2023-05-13T03:46:40.252Z,7.72
2023-05-13T03:49:07.102Z,10.15
2023-05-13T03:51:34.240Z,7.68
2023-05-13T03:54:01.124Z,7.85
2023-05-13T03:56:28.518Z,9.48
2023-05-13T03:58:55.345Z,7.75
2023-05-13T04:01:21.907Z,9.13
2023-05-13T04:03:49.814Z,7.65
2023-05-13T04:06:16.713Z,8.05
2023-05-13T04:08:43.593Z,8.95
2023-05-13T04:11:10.041Z,9.25
2023-05-13T04:13:36.632Z,11.93
2023-05-13T04:16:03.820Z,9.55
2023-05-13T04:18:31.100Z,8.82
2023-05-13T04:20:57.880Z,9.55
2023-05-13T04:23:24.360Z,11.40
2023-05-13T04:25:52.441Z,9.25
2023-05-13T04:28:19.463Z,10.00
2023-05-13T04:30:51.399Z,10.32
2023-05-13T04:33:17.847Z,11.15
2023-05-13T04:35:44.727Z,10.65
2023-05-13T04:38:12.090Z,9.07
2023-05-13T04:40:38.502Z,11.18
2023-05-13T04:43:04.920Z,9.85
2023-05-13T04:45:31.852Z,12.10
2023-05-13T04:47:58.577Z,11.85
2023-05-13T04:50:25.416Z,10.75
2023-05-13T04:52:54.565Z,11.27
2023-05-13T04:55:25.988Z,13.02
2023-05-13T04:57:53.939Z,14.63
2023-05-13T05:00:38.485Z,12.52
2023-05-13T05:03:04.975Z,11.43
2023-05-13T05:05:31.534Z,12.38
2023-05-13T05:07:57.943Z,11.68
2023-05-13T05:10:24.823Z,16.50
2023-05-13T05:12:51.243Z,12.98
2023-05-13T05:15:21.440Z,14.82
2023-05-13T05:17:48.098Z,14.20
2023-05-13T05:20:14.683Z,13.50
2023-05-13T05:22:42.152Z,14.52
2023-05-13T05:25:09.789Z,17.58
2023-05-13T05:27:36.334Z,20.30
2023-05-13T05:30:03.018Z,16.10
2023-05-13T05:32:29.535Z,16.95
2023-05-13T05:34:56.156Z,18.63
2023-05-13T05:37:22.634Z,19.13
2023-05-13T05:39:49.082Z,21.80
2023-05-13T05:42:15.579Z,20.10
2023-05-13T05:44:42.037Z,19.33
2023-05-13T05:47:08.491Z,20.80
2023-05-13T05:49:34.931Z,21.35
2023-05-13T05:52:01.462Z,23.67
2023-05-13T05:54:28.408Z,19.13
2023-05-13T05:56:54.819Z,20.70
2023-05-13T05:59:21.285Z,20.10
2023-05-13T06:01:47.804Z,21.40
2023-05-13T06:04:14.483Z,22.48
2023-05-13T06:06:41.118Z,20.25
2023-05-13T06:09:07.617Z,23.85
2023-05-13T06:11:34.197Z,20.95
2023-05-13T06:14:00.874Z,22.70
2023-05-13T06:16:27.521Z,21.55
2023-05-13T06:18:54.169Z,22.73
2023-05-13T06:21:20.762Z,20.10
2023-05-13T06:23:47.166Z,21.88
2023-05-13T06:26:13.588Z,21.83
2023-05-13T06:28:40.069Z,19.38
2023-05-13T06:31:06.547Z,18.27
2023-05-13T06:33:33.527Z,17.08
2023-05-13T06:35:59.966Z,18.63
2023-05-13T06:38:26.355Z,18.23
2023-05-13T06:41:08.753Z,17.20
2023-05-13T06:43:35.219Z,23.65
2023-05-13T06:46:01.906Z,13.68
2023-05-13T06:48:28.313Z,15.77
2023-05-13T06:50:54.832Z,13.95
2023-05-13T06:53:21.402Z,15.80
2023-05-13T06:55:48.504Z,18.25
2023-05-13T06:58:15.005Z,16.73
2023-05-13T07:00:41.806Z,16.60
2023-05-13T07:03:08.593Z,15.32
2023-05-13T07:05:35.392Z,14.20
2023-05-13T07:08:06.667Z,15.95
2023-05-13T07:10:34.188Z,17.55
2023-05-13T07:13:04.570Z,17.92
2023-05-13T07:15:31.269Z,15.10
2023-05-13T07:17:57.754Z,16.33
2023-05-13T07:20:27.590Z,12.73
2023-05-13T07:22:54.112Z,15.95
2023-05-13T07:25:20.757Z,18.92
2023-05-13T07:27:48.050Z,18.95
2023-05-13T07:30:14.958Z,16.60
2023-05-13T07:32:41.884Z,17.70
2023-05-13T07:35:09.290Z,19.55
2023-05-13T07:37:37.085Z,15.45
2023-05-13T07:40:07.769Z,16.95
2023-05-13T07:42:34.896Z,16.20
2023-05-13T07:45:01.456Z,19.92
2023-05-13T07:47:29.213Z,16.77
2023-05-13T07:49:55.861Z,16.75
2023-05-13T07:52:22.439Z,25.55
2023-05-13T07:54:49.378Z,17.85
2023-05-13T07:57:16.051Z,16.35
2023-05-13T07:59:44.655Z,15.45
2023-05-13T08:02:12.481Z,20.00
2023-05-13T08:04:38.995Z,17.35
2023-05-13T08:07:05.894Z,16.77
2023-05-13T08:09:32.296Z,15.45
2023-05-13T08:11:58.708Z,15.50
2023-05-13T08:14:25.173Z,15.15
2023-05-13T08:16:51.650Z,18.67
2023-05-13T08:19:19.997Z,14.88
2023-05-13T08:21:46.569Z,15.88
2023-05-13T08:24:12.981Z,17.38
2023-05-13T08:26:39.412Z,17.98
2023-05-13T08:29:05.826Z,16.55
2023-05-13T08:31:32.545Z,14.57
2023-05-13T08:33:59.103Z,13.45
2023-05-13T08:36:26.402Z,15.48
2023-05-13T08:38:53.171Z,14.27
2023-05-13T08:41:21.854Z,24.02
2023-05-13T08:43:49.881Z,14.25
2023-05-13T08:46:18.457Z,12.45
2023-05-13T08:48:45.641Z,12.68
2023-05-13T08:51:12.453Z,12.70
2023-05-13T08:53:40.745Z,9.85
2023-05-13T08:56:09.398Z,10.60
2023-05-13T08:58:35.957Z,13.23
2023-05-13T09:01:05.459Z,12.43
2023-05-13T09:03:32.410Z,10.98
2023-05-13T09:06:02.348Z,15.52
2023-05-13T09:08:28.915Z,14.65
2023-05-13T09:10:55.534Z,11.75
2023-05-13T09:13:25.808Z,11.10
2023-05-13T09:15:53.138Z,16.00
2023-05-13T09:18:19.785Z,13.45
2023-05-13T09:20:46.502Z,11.80
2023-05-13T09:23:13.560Z,10.60
2023-05-13T09:25:40.207Z,10.43
2023-05-13T09:28:07.897Z,11.80
2023-05-13T09:30:38.472Z,10.48
2023-05-13T09:33:12.074Z,10.10
2023-05-13T09:35:44.050Z,11.40
2023-05-13T09:38:19.255Z,10.20
2023-05-13T09:40:57.278Z,8.65
2023-05-13T09:43:25.666Z,9.73
2023-05-13T09:45:56.358Z,6.97
2023-05-13T09:48:25.869Z,5.72
2023-05-13T09:50:53.530Z,8.90
2023-05-13T09:53:22.960Z,7.68
2023-05-13T09:55:54.782Z,8.23
2023-05-13T09:58:28.369Z,10.73
2023-05-13T10:00:55.272Z,8.25
2023-05-13T10:03:22.188Z,8.10
2023-05-13T10:05:49.874Z,10.45
2023-05-13T10:08:18.318Z,7.97
2023-05-13T10:10:46.637Z,9.10
2023-05-13T10:13:20.089Z,6.93
2023-05-13T10:15:54.392Z,12.13
2023-05-13T10:18:22.578Z,6.82
2023-05-13T10:20:55.379Z,6.68
2023-05-13T10:23:23.949Z,5.32
2023-05-13T10:25:53.169Z,9.02
2023-05-13T10:28:20.152Z,6.93
2023-05-13T10:30:48.584Z,8.30
2023-05-13T10:33:16.306Z,10.82
2023-05-13T10:36:07.953Z,8.27
2023-05-13T10:39:05.966Z,8.77
2023-05-13T10:42:00.203Z,6.20
2023-05-13T10:44:27.390Z,7.43
2023-05-13T10:46:56.485Z,6.68
2023-05-13T10:49:24.699Z,7.38
2023-05-13T10:51:51.284Z,5.20
2023-05-13T10:54:20.128Z,6.43
2023-05-13T10:56:55.770Z,7.63
2023-05-13T10:59:22.354Z,5.22
2023-05-13T11:01:49.003Z,5.72
2023-05-13T11:04:21.401Z,5.28
2023-05-13T11:06:50.662Z,6.68
2023-05-13T11:09:23.152Z,6.93
2023-05-13T11:11:54.083Z,8.00
2023-05-13T11:14:22.329Z,6.57
2023-05-13T11:17:01.455Z,5.38
2023-05-13T11:19:48.493Z,6.45
2023-05-13T11:22:19.685Z,7.20
2023-05-13T11:25:08.726Z,6.13
2023-05-13T11:27:40.080Z,4.82
2023-05-13T11:30:27.332Z,6.18
2023-05-13T11:32:58.708Z,6.82
2023-05-13T11:35:30.171Z,4.95
2023-05-13T11:38:00.121Z,4.68
2023-05-13T11:40:32.598Z,7.38
2023-05-13T11:43:05.173Z,7.93
2023-05-13T11:45:32.361Z,7.85
2023-05-13T11:48:01.741Z,6.80
2023-05-13T11:50:30.737Z,5.38
2023-05-13T11:52:59.631Z,4.70
2023-05-13T11:55:36.356Z,5.53
2023-05-13T11:58:04.079Z,4.80
2023-05-13T12:00:35.943Z,4.50
2023-05-13T12:03:17.230Z,3.10
2023-05-13T12:05:44.664Z,7.32
2023-05-13T12:08:11.446Z,5.22
2023-05-13T12:10:45.211Z,6.05
2023-05-13T12:13:15.893Z,6.13
2023-05-13T12:15:42.814Z,5.95
2023-05-13T12:18:09.536Z,6.00
2023-05-13T12:20:40.334Z,5.35
2023-05-13T12:23:14.215Z,7.05
2023-05-13T12:25:54.572Z,7.20
2023-05-13T12:28:23.373Z,7.07
2023-05-13T12:31:05.749Z,6.40
2023-05-13T12:33:43.180Z,6.78
2023-05-13T12:36:39.918Z,5.07
2023-05-13T12:39:13.773Z,4.60
2023-05-13T12:41:42.263Z,7.63
2023-05-13T12:44:14.525Z,4.93
2023-05-13T12:46:54.974Z,4.95
2023-05-13T12:49:22.576Z,7.78
2023-05-13T12:51:51.544Z,4.32
2023-05-13T12:54:18.371Z,3.85
2023-05-13T12:56:44.845Z,4.15
2023-05-13T12:59:13.302Z,3.50
2023-05-13T13:01:40.372Z,3.95
2023-05-13T13:04:10.801Z,4.25
2023-05-13T13:06:46.689Z,4.55
2023-05-13T13:09:13.426Z,5.95
2023-05-13T13:11:43.446Z,4.38
2023-05-13T13:14:09.863Z,9.40
2023-05-13T13:16:36.325Z,5.78
2023-05-13T13:19:02.821Z,5.07
2023-05-13T13:21:29.274Z,3.70
2023-05-13T13:23:55.796Z,4.45
2023-05-13T13:26:23.126Z,3.17
2023-05-13T13:28:49.651Z,4.32
2023-05-13T13:31:17.220Z,4.55
2023-05-13T13:33:43.783Z,3.95
2023-05-13T13:36:10.271Z,2.30
2023-05-13T13:38:36.647Z,6.20
2023-05-13T13:41:03.105Z,4.18
2023-05-13T13:43:29.579Z,5.60
2023-05-13T13:46:05.107Z,4.15
2023-05-13T13:48:31.605Z,3.65
2023-05-13T13:50:59.548Z,4.70
2023-05-13T13:53:26.298Z,5.30
2023-05-13T13:55:52.819Z,4.57
2023-05-13T13:58:19.224Z,4.15
2023-05-13T14:00:45.748Z,3.28
2023-05-13T14:03:12.732Z,3.25
2023-05-13T14:05:39.427Z,6.68
2023-05-13T14:08:06.370Z,5.03
2023-05-13T14:10:32.829Z,2.67
2023-05-13T14:12:59.464Z,3.15
2023-05-13T14:15:28.723Z,2.60
2023-05-13T14:17:55.402Z,2.83
2023-05-13T14:20:22.230Z,5.05
2023-05-13T14:22:49.041Z,2.97
2023-05-13T14:25:15.565Z,3.03
2023-05-13T14:27:42.144Z,5.03
2023-05-13T14:30:09.508Z,2.75
2023-05-13T14:32:35.939Z,2.78
2023-05-13T14:35:02.503Z,2.50
2023-05-13T14:37:29.031Z,2.67
2023-05-13T14:39:55.917Z,2.92
2023-05-13T14:42:22.315Z,2.85
2023-05-13T14:44:48.769Z,5.50
2023-05-13T14:47:15.424Z,4.20
2023-05-13T14:49:41.891Z,4.13
2023-05-13T14:52:08.395Z,7.07
2023-05-13T14:54:36.829Z,5.30
2023-05-13T14:57:04.324Z,6.80
2023-05-13T14:59:32.204Z,5.88
2023-05-13T15:01:58.892Z,5.60
2023-05-13T15:04:25.428Z,3.08
2023-05-13T15:06:52.041Z,2.97
2023-05-13T15:09:19.605Z,2.38
2023-05-13T15:11:46.205Z,4.65
2023-05-13T15:14:18.029Z,5.20
2023-05-13T15:16:50.845Z,3.90
2023-05-13T15:19:18.639Z,5.53
2023-05-13T15:21:45.119Z,3.90
2023-05-13T15:24:11.523Z,5.97
2023-05-13T15:26:38.685Z,2.80
2023-05-13T15:29:05.129Z,2.95
2023-05-13T15:31:32.191Z,3.90
2023-05-13T15:33:59.468Z,7.88
2023-05-13T15:36:25.946Z,23.13
2023-05-13T15:38:52.375Z,4.18
2023-05-13T15:41:18.852Z,9.95
2023-05-13T15:43:45.296Z,41.05
2023-05-13T15:46:11.735Z,60.88
2023-05-13T15:49:00.174Z,17.90
2023-05-13T15:51:27.388Z,57.45
2023-05-13T15:53:56.232Z,31.15
2023-05-13T15:56:22.781Z,20.25
2023-05-13T15:58:49.829Z,3.35
2023-05-13T16:01:16.403Z,3.97
2023-05-13T16:03:43.037Z,8.52
2023-05-13T16:06:09.653Z,13.02
2023-05-13T16:08:36.094Z,3.67
2023-05-13T16:11:02.548Z,3.40
2023-05-13T16:13:29.042Z,6.18
2023-05-13T16:15:55.696Z,9.10
2023-05-13T16:18:26.797Z,6.40
2023-05-13T16:23:20.620Z,6.38
2023-05-13T16:25:47.251Z,5.82
2023-05-13T16:28:13.875Z,3.42
2023-05-13T16:30:40.931Z,3.83
2023-05-13T16:33:09.611Z,8.60
2023-05-13T16:35:36.470Z,15.68
2023-05-13T16:38:05.897Z,7.57
2023-05-13T16:40:32.382Z,14.30
2023-05-13T16:43:01.770Z,7.30
2023-05-13T16:45:29.754Z,10.48
2023-05-13T16:47:56.732Z,4.05
2023-05-13T16:50:23.475Z,3.00
2023-05-13T16:52:50.308Z,2.05
2023-05-13T16:55:16.800Z,3.10
2023-05-13T16:57:43.622Z,2.58
2023-05-13T17:00:10.648Z,2.78
2023-05-13T17:02:37.191Z,5.75
2023-05-13T17:05:03.994Z,7.90
2023-05-13T17:07:30.708Z,3.53
2023-05-13T17:09:57.193Z,2.58
2023-05-13T17:12:23.642Z,2.65
2023-05-13T17:14:50.084Z,5.18
2023-05-13T17:17:16.519Z,2.60
2023-05-13T17:19:43.124Z,4.95
2023-05-13T17:22:09.706Z,3.13
2023-05-13T17:24:36.164Z,4.07
2023-05-13T17:27:02.681Z,3.35
2023-05-13T17:29:29.164Z,3.80
2023-05-13T17:31:55.730Z,5.72
2023-05-13T17:34:22.137Z,6.00
2023-05-13T17:36:50.137Z,3.90
2023-05-13T17:39:16.924Z,3.38
2023-05-13T17:41:43.373Z,4.97
2023-05-13T17:44:09.851Z,3.53
2023-05-13T17:46:37.139Z,3.45
2023-05-13T17:49:04.269Z,2.45
2023-05-13T17:51:30.874Z,2.97
2023-05-13T17:53:57.330Z,3.60
2023-05-13T17:56:24.804Z,2.88
2023-05-13T17:58:51.225Z,3.15
2023-05-13T18:01:19.709Z,6.30
2023-05-13T18:03:46.131Z,3.53
2023-05-13T18:06:12.669Z,2.65
2023-05-13T18:08:39.103Z,3.28
2023-05-13T18:11:05.652Z,3.65
2023-05-13T18:13:32.574Z,3.85
2023-05-13T18:15:59.838Z,3.30
2023-05-13T18:18:26.407Z,3.03
2023-05-13T18:20:52.981Z,3.17
2023-05-13T18:23:19.481Z,3.75
2023-05-13T18:25:55.012Z,3.22
2023-05-13T18:28:22.261Z,2.75
2023-05-13T18:30:48.654Z,3.00
2023-05-13T18:33:15.177Z,4.25
2023-05-13T18:35:41.621Z,3.20
2023-05-13T18:38:08.041Z,4.40
2023-05-13T18:40:34.513Z,3.78
2023-05-13T18:43:00.930Z,2.72
2023-05-13T18:45:27.365Z,3.33
2023-05-13T18:47:53.736Z,4.82
2023-05-13T18:50:20.418Z,5.38
2023-05-13T18:52:47.158Z,3.97
2023-05-13T18:55:13.545Z,9.63
2023-05-13T18:57:39.946Z,5.68
2023-05-13T19:00:07.103Z,5.10
2023-05-13T19:02:34.946Z,4.60
2023-05-13T19:05:01.597Z,4.95
2023-05-13T19:07:28.022Z,5.95
2023-05-13T19:09:54.455Z,4.00
2023-05-13T19:12:20.846Z,3.83
2023-05-13T19:14:47.236Z,5.88
2023-05-13T19:17:13.882Z,3.85
2023-05-13T19:19:41.065Z,4.53
2023-05-13T19:22:07.493Z,4.80
2023-05-13T19:24:33.876Z,4.25
2023-05-13T19:27:01.122Z,5.85
2023-05-13T19:29:27.570Z,4.78
2023-05-13T19:31:53.978Z,4.35
2023-05-13T19:34:20.622Z,7.85
2023-05-13T19:36:47.067Z,4.32
2023-05-13T19:39:13.503Z,7.35
2023-05-13T19:41:39.990Z,5.32
2023-05-13T19:44:07.220Z,4.13
2023-05-13T19:46:33.680Z,9.63
2023-05-13T19:49:00.155Z,9.68
2023-05-13T19:51:26.771Z,9.32
2023-05-13T19:53:53.164Z,6.60
2023-05-13T19:56:19.610Z,7.13
2023-05-13T19:58:46.068Z,6.45
2023-05-13T20:01:14.730Z,5.65
2023-05-13T20:03:41.719Z,5.07
2023-05-13T20:06:08.379Z,7.75
2023-05-13T20:08:35.754Z,5.82
2023-05-13T20:11:02.325Z,7.13
2023-05-13T20:13:28.771Z,5.57
2023-05-13T20:15:55.208Z,5.13
2023-05-13T20:18:21.957Z,6.20
2023-05-13T20:20:48.490Z,6.00
2023-05-13T20:23:14.893Z,7.70
2023-05-13T20:25:41.471Z,5.13
2023-05-13T20:28:07.942Z,4.95
2023-05-13T20:30:34.394Z,6.25
2023-05-13T20:33:01.002Z,5.63
2023-05-13T20:35:27.610Z,5.38
2023-05-13T20:37:54.401Z,6.07
2023-05-13T20:40:21.425Z,7.20
2023-05-13T20:42:48.085Z,5.95
2023-05-13T20:45:14.519Z,5.38
2023-05-13T20:47:41.425Z,7.40
2023-05-13T20:50:08.380Z,6.30
2023-05-13T20:52:34.873Z,5.40
2023-05-13T20:55:01.363Z,7.13
2023-05-13T20:57:27.752Z,5.85
2023-05-13T20:59:54.312Z,6.47
2023-05-13T21:02:21.077Z,5.20
2023-05-13T21:04:47.488Z,6.05
2023-05-13T21:07:13.909Z,8.52
2023-05-13T21:09:40.401Z,6.85
2023-05-13T21:12:06.951Z,9.63
2023-05-13T21:14:33.337Z,8.25
2023-05-13T21:17:03.074Z,9.48
2023-05-13T21:19:30.499Z,8.43
2023-05-13T21:21:57.638Z,6.53
2023-05-13T21:24:24.073Z,12.07
2023-05-13T21:26:50.723Z,7.88
2023-05-13T21:29:18.854Z,7.10
2023-05-13T21:31:46.085Z,6.72
2023-05-13T21:34:12.761Z,7.80
2023-05-13T21:36:39.320Z,7.15
2023-05-13T21:39:10.425Z,7.45
2023-05-13T21:44:03.341Z,5.13
2023-05-13T21:46:29.791Z,6.10
2023-05-13T21:48:56.219Z,6.90
2023-05-13T21:51:22.708Z,6.28
2023-05-13T21:53:49.171Z,8.18
2023-05-13T21:56:15.671Z,5.72
2023-05-13T21:58:42.176Z,5.90
2023-05-13T22:01:08.644Z,4.47
2023-05-13T22:03:35.220Z,7.15
2023-05-13T22:06:02.331Z,5.85
2023-05-13T22:08:29.657Z,5.82
2023-05-13T22:10:56.082Z,5.20
2023-05-13T22:13:22.561Z,4.05
2023-05-13T22:15:49.092Z,4.53
2023-05-13T22:18:15.848Z,3.55
2023-05-13T22:20:42.498Z,3.63
2023-05-13T22:23:08.939Z,5.65
2023-05-13T22:25:35.354Z,3.42
2023-05-13T22:28:01.838Z,4.25
2023-05-13T22:30:28.230Z,3.83
2023-05-13T22:32:55.754Z,3.50
2023-05-13T22:35:22.333Z,2.85
2023-05-13T22:37:50.491Z,6.72
2023-05-13T22:40:16.943Z,3.00
2023-05-13T22:42:43.377Z,6.32
2023-05-13T22:45:10.241Z,5.18
2023-05-13T22:47:39.491Z,5.63
2023-05-13T22:50:06.524Z,4.10
2023-05-13T22:52:32.912Z,5.20
2023-05-13T22:54:59.331Z,3.13
2023-05-13T22:57:27.019Z,3.83
2023-05-13T22:59:53.460Z,4.72
2023-05-13T23:02:19.963Z,2.97
2023-05-13T23:04:46.355Z,4.80
2023-05-13T23:07:12.745Z,4.45
2023-05-13T23:09:39.180Z,4.07
2023-05-13T23:12:06.281Z,4.30
2023-05-13T23:14:32.713Z,5.95
2023-05-13T23:16:59.181Z,4.32
2023-05-13T23:19:28.226Z,4.10
2023-05-13T23:21:54.605Z,5.43
2023-05-13T23:24:21.138Z,4.03
2023-05-13T23:26:48.595Z,4.07
2023-05-13T23:29:15.014Z,3.83
2023-05-13T23:31:41.481Z,3.83
2023-05-13T23:34:08.490Z,4.97
2023-05-13T23:36:35.295Z,4.53
2023-05-13T23:39:01.673Z,6.15
2023-05-13T23:41:28.514Z,6.82
2023-05-13T23:43:54.944Z,5.30
2023-05-13T23:46:21.415Z,5.22
2023-05-13T23:48:47.865Z,6.88
2023-05-13T23:51:14.272Z,6.72
2023-05-13T23:53:40.925Z,5.65
2023-05-13T23:56:07.631Z,4.53
2023-05-13T23:58:34.070Z,5.07
